Time;durP1;ratioP1;P1;durP2;ratioP2;P2;SDS_P1;SDS_P2;PMS_P1;PMS_P2;Temp;Humidity;BMP_temperature;BMP_pressure;BME280_temperature;BME280_humidity;BME280_pressure;Samples;Min_cycle;Max_cycle;Signal;HPM_P1;HPM_P2
2022/04/02 00:01:22;;;;;;;73.55;14.95;;;;;;;;;;5156988;27;20251;-72
2022/04/02 00:03:50;;;;;;;70.75;14.50;;;;;;;;;;5155753;27;20587;-74
2022/04/02 00:06:18;;;;;;;74.75;15.98;;;;;;;;;;5155750;27;20199;-74
2022/04/02 00:08:45;;;;;;;73.45;15.40;;;;;;;;;;5155259;27;20326;-74
2022/04/02 00:11:12;;;;;;;74.38;16.10;;;;;;;;;;5155737;27;20385;-74
2022/04/02 00:13:39;;;;;;;75.50;15.70;;;;;;;;;;5155938;27;20221;-74
2022/04/02 00:16:07;;;;;;;75.70;16.10;;;;;;;;;;5155904;27;20264;-73
2022/04/02 00:18:34;;;;;;;75.28;15.70;;;;;;;;;;5155164;27;20318;-72
2022/04/02 00:21:03;;;;;;;73.47;16.20;;;;;;;;;;5155862;27;20206;-74
2022/04/02 00:23:43;;;;;;;73.93;15.73;;;;;;;;;;5155591;27;20210;-74
2022/04/02 00:26:11;;;;;;;73.35;15.18;;;;;;;;;;5155793;27;20626;-70
2022/04/02 00:28:40;;;;;;;75.03;16.83;;;;;;;;;;5155362;27;20232;-74
2022/04/02 00:31:08;;;;;;;77.40;16.70;;;;;;;;;;5155661;27;20206;-73
2022/04/02 00:33:36;;;;;;;79.65;17.88;;;;;;;;;;5155949;27;20206;-74
2022/04/02 00:36:04;;;;;;;75.90;15.52;;;;;;;;;;5155510;27;20313;-72
2022/04/02 00:38:32;;;;;;;75.97;16.50;;;;;;;;;;5155911;27;20232;-74
2022/04/02 00:40:59;;;;;;;74.30;15.40;;;;;;;;;;5158414;27;20253;-72
2022/04/02 00:43:27;;;;;;;78.50;17.35;;;;;;;;;;5157948;27;20233;-75
2022/04/02 00:45:54;;;;;;;74.80;16.42;;;;;;;;;;5157700;27;20206;-74
2022/04/02 00:48:23;;;;;;;72.80;14.88;;;;;;;;;;5156504;27;20781;-74
2022/04/02 00:50:53;;;;;;;75.28;15.65;;;;;;;;;;5156235;27;20247;-74
2022/04/02 00:53:21;;;;;;;73.85;15.05;;;;;;;;;;5155910;27;20662;-73
2022/04/02 00:55:49;;;;;;;71.85;14.77;;;;;;;;;;5155861;27;20222;-74
2022/04/02 00:58:16;;;;;;;74.30;16.20;;;;;;;;;;5154696;27;20744;-74
2022/04/02 01:00:43;;;;;;;75.55;16.15;;;;;;;;;;5155574;27;20678;-74
2022/04/02 01:03:11;;;;;;;76.57;17.40;;;;;;;;;;5152018;27;20285;-74
2022/04/02 01:05:39;;;;;;;75.00;16.52;;;;;;;;;;5155503;27;20600;-74
2022/04/02 01:08:06;;;;;;;76.43;16.60;;;;;;;;;;5154534;27;20233;-73
2022/04/02 01:10:35;;;;;;;73.18;15.25;;;;;;;;;;5155433;27;20289;-75
2022/04/02 01:13:03;;;;;;;75.13;15.07;;;;;;;;;;5155395;27;20205;-73
2022/04/02 01:15:30;;;;;;;73.47;15.63;;;;;;;;;;5155374;27;20222;-74
2022/04/02 01:17:57;;;;;;;74.70;15.80;;;;;;;;;;5154741;27;20261;-74
2022/04/02 01:20:25;;;;;;;72.55;15.20;;;;;;;;;;5154974;27;20202;-74
2022/04/02 01:22:53;;;;;;;75.22;16.40;;;;;;;;;;5155373;27;20204;-73
2022/04/02 01:25:21;;;;;;;77.35;16.60;;;;;;;;;;5154974;27;20293;-74
2022/04/02 01:27:48;;;;;;;75.95;16.55;;;;;;;;;;5154295;27;20602;-74
2022/04/02 01:30:16;;;;;;;74.32;15.45;;;;;;;;;;5154701;27;20210;-74
2022/04/02 01:32:44;;;;;;;73.80;14.40;;;;;;;;;;5154476;27;20297;-75
2022/04/02 01:35:13;;;;;;;74.30;15.82;;;;;;;;;;5154524;27;20226;-74
2022/04/02 01:37:40;;;;;;;72.07;15.95;;;;;;;;;;5154086;27;20226;-75
2022/04/02 01:40:10;;;;;;;74.07;16.17;;;;;;;;;;5154469;27;20293;-74
2022/04/02 01:42:37;;;;;;;75.78;15.05;;;;;;;;;;5156344;27;20561;-75
2022/04/02 01:45:05;;;;;;;73.57;14.55;;;;;;;;;;5159472;27;20233;-75
2022/04/02 01:47:32;;;;;;;73.85;15.55;;;;;;;;;;5158435;27;20276;-75
2022/04/02 01:49:59;;;;;;;72.93;14.73;;;;;;;;;;5159347;27;20720;-75
2022/04/02 01:52:26;;;;;;;75.13;13.52;;;;;;;;;;5157545;27;20279;-75
2022/04/02 01:54:53;;;;;;;74.97;14.80;;;;;;;;;;5155449;27;20843;-74
2022/04/02 01:57:22;;;;;;;71.10;13.63;;;;;;;;;;5154485;27;20232;-75
2022/04/02 01:59:50;;;;;;;72.60;15.38;;;;;;;;;;5151459;27;20293;-73
2022/04/02 02:02:20;;;;;;;71.97;13.60;;;;;;;;;;5154848;27;20209;-75
2022/04/02 02:04:47;;;;;;;70.55;12.82;;;;;;;;;;5154633;27;20206;-75
2022/04/02 02:07:14;;;;;;;68.80;12.88;;;;;;;;;;5154397;27;20320;-75
2022/04/02 02:09:41;;;;;;;72.97;13.55;;;;;;;;;;5154950;27;20206;-73
2022/04/02 02:12:09;;;;;;;68.45;12.85;;;;;;;;;;5156172;27;20208;-75
2022/04/02 02:14:38;;;;;;;72.70;13.70;;;;;;;;;;5154026;27;20208;-75
2022/04/02 02:17:05;;;;;;;71.30;14.05;;;;;;;;;;5153093;27;20317;-74
2022/04/02 02:19:32;;;;;;;68.20;11.68;;;;;;;;;;5153044;27;20202;-75
2022/04/02 02:22:00;;;;;;;69.82;12.60;;;;;;;;;;5153601;27;20293;-75
2022/04/02 02:24:28;;;;;;;69.72;13.43;;;;;;;;;;5153392;27;20212;-74
2022/04/02 02:26:55;;;;;;;68.70;11.38;;;;;;;;;;5153480;27;20225;-74
2022/04/02 02:29:22;;;;;;;69.75;11.68;;;;;;;;;;5154155;27;20270;-75
2022/04/02 02:31:51;;;;;;;70.50;11.85;;;;;;;;;;5155146;27;20206;-75
2022/04/02 02:37:03;;;;;;;69.88;12.32;;;;;;;;;;5154287;27;20350;-74
2022/04/02 02:39:30;;;;;;;74.18;12.13;;;;;;;;;;5154458;27;20214;-75
2022/04/02 02:41:57;;;;;;;67.40;11.70;;;;;;;;;;5155168;27;20202;-74
2022/04/02 02:44:24;;;;;;;68.10;11.35;;;;;;;;;;5156668;27;20450;-75
2022/04/02 02:46:53;;;;;;;68.50;11.82;;;;;;;;;;5160059;27;20309;-71
2022/04/02 02:49:20;;;;;;;69.53;12.25;;;;;;;;;;5159003;27;20198;-75
2022/04/02 02:51:47;;;;;;;72.80;12.73;;;;;;;;;;5159873;27;20209;-74
2022/04/02 02:54:14;;;;;;;75.70;12.77;;;;;;;;;;5160073;27;20230;-74
2022/04/02 02:56:41;;;;;;;67.90;11.70;;;;;;;;;;5159849;27;20222;-75
2022/04/02 02:59:09;;;;;;;71.05;11.48;;;;;;;;;;5158577;27;20198;-74
2022/04/02 03:01:36;;;;;;;68.82;12.00;;;;;;;;;;5159529;27;20198;-75
2022/04/02 03:04:05;;;;;;;68.90;12.88;;;;;;;;;;5158897;27;20218;-75
2022/04/02 03:06:32;;;;;;;70.65;12.75;;;;;;;;;;5161291;27;20269;-76
2022/04/02 03:08:59;;;;;;;68.60;11.73;;;;;;;;;;5158074;27;20213;-75
2022/04/02 03:11:26;;;;;;;66.93;11.10;;;;;;;;;;5158354;27;20224;-75
2022/04/02 03:13:54;;;;;;;67.03;10.50;;;;;;;;;;5157853;27;20289;-75
2022/04/02 03:16:22;;;;;;;66.65;10.27;;;;;;;;;;5157056;27;20229;-75
2022/04/02 03:18:49;;;;;;;69.63;11.13;;;;;;;;;;5156444;27;20226;-74
2022/04/02 03:21:17;;;;;;;70.65;11.23;;;;;;;;;;5157221;27;20202;-74
2022/04/02 03:23:44;;;;;;;71.18;12.48;;;;;;;;;;5157410;27;20198;-74
2022/04/02 03:26:12;;;;;;;68.03;10.43;;;;;;;;;;5157022;27;20201;-74
2022/04/02 03:28:39;;;;;;;67.25;10.80;;;;;;;;;;5157070;27;20229;-76
2022/04/02 03:31:06;;;;;;;65.65;9.75;;;;;;;;;;5158652;27;20676;-74
2022/04/02 03:33:33;;;;;;;68.38;9.07;;;;;;;;;;5157420;27;20292;-75
2022/04/02 03:36:00;;;;;;;69.20;10.02;;;;;;;;;;5157728;27;20226;-76
2022/04/02 03:38:29;;;;;;;71.03;10.77;;;;;;;;;;5158063;27;20300;-76
2022/04/02 03:40:56;;;;;;;68.70;11.63;;;;;;;;;;5158955;27;20289;-75
2022/04/02 03:43:23;;;;;;;66.95;9.63;;;;;;;;;;5158582;27;20245;-75
2022/04/02 03:45:50;;;;;;;68.72;10.95;;;;;;;;;;5159768;27;20285;-75
2022/04/02 03:48:18;;;;;;;71.05;10.15;;;;;;;;;;5159289;27;20662;-75
2022/04/02 03:50:45;;;;;;;68.45;10.07;;;;;;;;;;5158348;27;20198;-75
2022/04/02 03:53:13;;;;;;;66.72;10.45;;;;;;;;;;5159047;27;20285;-75
2022/04/02 03:55:41;;;;;;;67.13;11.13;;;;;;;;;;5157423;27;20296;-74
2022/04/02 03:58:09;;;;;;;75.00;11.40;;;;;;;;;;5156758;27;20665;-74
2022/04/02 04:00:37;;;;;;;69.93;10.52;;;;;;;;;;5157534;27;20206;-75
2022/04/02 04:03:04;;;;;;;72.30;9.82;;;;;;;;;;5157747;27;20202;-76
2022/04/02 04:05:31;;;;;;;68.38;9.82;;;;;;;;;;5156692;27;20712;-76
2022/04/02 04:07:58;;;;;;;69.60;9.90;;;;;;;;;;5154906;27;20236;-74
2022/04/02 04:10:25;;;;;;;68.55;10.23;;;;;;;;;;5155827;27;20237;-74
2022/04/02 04:12:54;;;;;;;66.25;9.02;;;;;;;;;;5155807;27;20674;-72
2022/04/02 04:15:21;;;;;;;66.88;9.27;;;;;;;;;;5155943;27;20206;-74
2022/04/02 04:17:48;;;;;;;67.80;10.65;;;;;;;;;;5154811;27;20251;-75
2022/04/02 04:20:15;;;;;;;71.60;9.85;;;;;;;;;;5155996;27;20206;-74
2022/04/02 04:22:42;;;;;;;70.63;10.18;;;;;;;;;;5156080;27;20293;-75
2022/04/02 04:25:10;;;;;;;69.53;10.10;;;;;;;;;;5156054;27;20201;-75
2022/04/02 04:27:37;;;;;;;66.20;10.15;;;;;;;;;;5154655;27;20709;-75
2022/04/02 04:30:07;;;;;;;74.70;10.75;;;;;;;;;;5156030;27;20722;-75
2022/04/02 04:32:34;;;;;;;70.35;10.02;;;;;;;;;;5156643;27;20210;-74
2022/04/02 04:35:02;;;;;;;72.43;9.85;;;;;;;;;;5156580;27;20597;-73
2022/04/02 04:37:29;;;;;;;68.68;10.20;;;;;;;;;;5154623;27;20271;-74
2022/04/02 04:39:56;;;;;;;65.03;9.60;;;;;;;;;;5155142;27;20210;-74
2022/04/02 04:42:24;;;;;;;70.45;10.23;;;;;;;;;;5154992;27;20202;-73
2022/04/02 04:44:51;;;;;;;74.28;9.30;;;;;;;;;;5154977;27;20696;-74
2022/04/02 04:47:19;;;;;;;66.65;9.07;;;;;;;;;;5154157;27;20226;-74
2022/04/02 04:49:46;;;;;;;70.93;10.77;;;;;;;;;;5155004;27;20206;-74
2022/04/02 04:52:13;;;;;;;70.88;9.98;;;;;;;;;;5154957;27;20294;-74
2022/04/02 04:54:41;;;;;;;67.40;10.52;;;;;;;;;;5154589;27;20204;-74
2022/04/02 04:57:08;;;;;;;64.97;9.25;;;;;;;;;;5154502;27;20321;-73
2022/04/02 04:59:35;;;;;;;68.30;11.95;;;;;;;;;;5154787;27;20233;-74
2022/04/02 05:02:03;;;;;;;64.47;8.57;;;;;;;;;;5154708;27;20578;-73
2022/04/02 05:04:32;;;;;;;66.82;9.80;;;;;;;;;;5154458;27;20670;-75
2022/04/02 05:07:00;;;;;;;66.18;10.35;;;;;;;;;;5154290;27;20226;-74
2022/04/02 05:09:27;;;;;;;66.20;10.65;;;;;;;;;;5153201;27;20237;-74
2022/04/02 05:11:54;;;;;;;65.72;9.55;;;;;;;;;;5154679;27;20216;-75
2022/04/02 05:14:21;;;;;;;65.78;9.93;;;;;;;;;;5154908;27;20662;-74
2022/04/02 05:16:48;;;;;;;67.38;10.35;;;;;;;;;;5154572;27;20645;-73
2022/04/02 05:19:15;;;;;;;67.00;11.02;;;;;;;;;;5153816;27;20293;-74
2022/04/02 05:21:44;;;;;;;64.68;10.23;;;;;;;;;;5154606;27;20202;-73
2022/04/02 05:24:11;;;;;;;68.65;10.27;;;;;;;;;;5154714;27;20296;-74
2022/04/02 05:26:38;;;;;;;68.20;10.10;;;;;;;;;;5154447;27;20198;-75
2022/04/02 05:29:05;;;;;;;68.88;11.63;;;;;;;;;;5153820;27;20210;-74
2022/04/02 05:31:33;;;;;;;71.68;11.70;;;;;;;;;;5154440;27;20488;-74
2022/04/02 05:34:00;;;;;;;67.28;10.88;;;;;;;;;;5154371;27;20206;-74
2022/04/02 05:36:27;;;;;;;70.90;11.98;;;;;;;;;;5154224;27;20224;-75
2022/04/02 05:38:55;;;;;;;71.50;10.85;;;;;;;;;;5153952;27;20269;-75
2022/04/02 05:41:23;;;;;;;67.85;10.45;;;;;;;;;;5154722;27;20204;-74
2022/04/02 05:43:50;;;;;;;71.20;10.50;;;;;;;;;;5154640;27;20212;-74
2022/04/02 05:46:17;;;;;;;68.65;11.15;;;;;;;;;;5154754;27;20241;-75
2022/04/02 05:48:44;;;;;;;65.97;10.40;;;;;;;;;;5153516;27;20226;-74
2022/04/02 05:51:12;;;;;;;66.47;10.60;;;;;;;;;;5154951;27;20586;-75
2022/04/02 05:53:39;;;;;;;69.30;12.48;;;;;;;;;;5154554;27;20305;-75
2022/04/02 05:56:08;;;;;;;66.28;10.07;;;;;;;;;;5154668;27;20202;-74
2022/04/02 05:58:38;;;;;;;67.63;10.90;;;;;;;;;;5152903;27;20505;-74
2022/04/02 06:01:06;;;;;;;68.03;10.18;;;;;;;;;;5153468;27;20238;-73
2022/04/02 06:03:34;;;;;;;66.25;10.70;;;;;;;;;;5153299;27;20209;-72
2022/04/02 06:06:01;;;;;;;66.82;10.25;;;;;;;;;;5154057;27;20202;-73
2022/04/02 06:08:28;;;;;;;79.03;10.65;;;;;;;;;;5153653;27;20226;-73
2022/04/02 06:10:55;;;;;;;67.80;10.50;;;;;;;;;;5153541;27;20203;-73
2022/04/02 06:13:24;;;;;;;66.95;10.90;;;;;;;;;;5153386;27;20205;-73
2022/04/02 06:15:51;;;;;;;68.75;11.00;;;;;;;;;;5153426;27;20204;-74
2022/04/02 06:18:18;;;;;;;72.28;12.32;;;;;;;;;;5152562;27;20308;-73
2022/04/02 06:20:46;;;;;;;66.40;10.63;;;;;;;;;;5153207;27;20206;-74
2022/04/02 06:23:13;;;;;;;68.50;10.05;;;;;;;;;;5153364;27;20209;-73
2022/04/02 06:25:40;;;;;;;66.80;9.82;;;;;;;;;;5153217;27;20198;-73
2022/04/02 06:28:07;;;;;;;65.80;11.00;;;;;;;;;;5152531;27;20218;-73
2022/04/02 06:30:36;;;;;;;65.13;10.10;;;;;;;;;;5153121;27;20294;-74
2022/04/02 06:33:04;;;;;;;66.93;9.50;;;;;;;;;;5153657;27;20230;-74
2022/04/02 06:35:31;;;;;;;65.70;8.65;;;;;;;;;;5153383;27;20207;-74
2022/04/02 06:37:59;;;;;;;64.50;8.57;;;;;;;;;;5152872;27;20226;-73
2022/04/02 06:40:26;;;;;;;66.28;9.95;;;;;;;;;;5153147;27;20208;-73
2022/04/02 06:42:56;;;;;;;70.30;9.35;;;;;;;;;;5153167;27;20208;-73
2022/04/02 06:45:23;;;;;;;65.40;9.20;;;;;;;;;;5153233;27;20209;-72
2022/04/02 06:47:52;;;;;;;64.47;9.07;;;;;;;;;;5152453;27;20221;-73
2022/04/02 06:50:19;;;;;;;67.68;9.70;;;;;;;;;;5153081;27;20206;-74
2022/04/02 06:52:47;;;;;;;69.35;9.10;;;;;;;;;;5153125;27;20214;-74
2022/04/02 06:55:15;;;;;;;63.95;8.38;;;;;;;;;;5153135;27;20202;-74
2022/04/02 06:57:43;;;;;;;64.55;8.60;;;;;;;;;;5152078;27;20226;-74
2022/04/02 07:00:11;;;;;;;64.93;8.25;;;;;;;;;;5152323;27;20681;-72
2022/04/02 07:02:38;;;;;;;64.07;8.63;;;;;;;;;;5153005;27;20206;-73
2022/04/02 07:05:07;;;;;;;64.53;8.63;;;;;;;;;;5153446;27;20236;-73
2022/04/02 07:07:34;;;;;;;64.45;8.73;;;;;;;;;;5152261;27;20230;-73
2022/04/02 07:10:01;;;;;;;64.63;7.53;;;;;;;;;;5153123;27;20224;-72
2022/04/02 07:12:29;;;;;;;64.63;7.90;;;;;;;;;;5153269;27;20205;-73
2022/04/02 07:14:56;;;;;;;64.10;8.80;;;;;;;;;;5069729;27;20300;-73
2022/04/02 07:17:23;;;;;;;64.38;7.82;;;;;;;;;;5048012;28;20611;-73
2022/04/02 07:19:52;;;;;;;68.43;8.57;;;;;;;;;;5050516;28;20205;-74
2022/04/02 07:22:22;;;;;;;63.13;8.05;;;;;;;;;;5049090;28;20220;-74
2022/04/02 07:24:50;;;;;;;64.25;8.40;;;;;;;;;;5049622;28;20221;-73
2022/04/02 07:27:18;;;;;;;65.05;10.43;;;;;;;;;;5045007;27;20310;-74
2022/04/02 07:29:45;;;;;;;66.70;9.25;;;;;;;;;;5048749;28;20264;-73
2022/04/02 07:32:12;;;;;;;64.07;7.90;;;;;;;;;;5052213;28;20289;-73
2022/04/02 07:34:40;;;;;;;70.55;9.05;;;;;;;;;;5052495;27;20216;-73
2022/04/02 07:37:11;;;;;;;67.32;8.93;;;;;;;;;;5052728;28;20417;-73
2022/04/02 07:39:46;;;;;;;65.38;8.32;;;;;;;;;;5053394;28;20240;-74
2022/04/02 07:42:16;;;;;;;74.43;13.90;;;;;;;;;;5051955;28;20704;-73
2022/04/02 07:44:50;;;;;;;63.75;8.18;;;;;;;;;;5051269;28;20577;-74
2022/04/02 07:47:18;;;;;;;63.70;7.90;;;;;;;;;;5050204;28;20311;-73
2022/04/02 07:49:46;;;;;;;66.15;8.80;;;;;;;;;;5050645;28;20212;-73
2022/04/02 07:52:14;;;;;;;67.90;9.00;;;;;;;;;;5050752;28;20670;-73
2022/04/02 07:54:44;;;;;;;62.92;8.07;;;;;;;;;;5050939;28;20296;-73
2022/04/02 07:57:13;;;;;;;65.95;10.40;;;;;;;;;;5048988;28;20230;-73
2022/04/02 07:59:42;;;;;;;65.75;8.98;;;;;;;;;;5047953;27;20202;-74
2022/04/02 08:02:36;;;;;;;66.93;9.25;;;;;;;;;;5050226;28;20256;-72
2022/04/02 08:05:00;;;;;;;65.88;9.57;;;;;;;;;;5050497;28;20648;-74
2022/04/02 08:07:28;;;;;;;69.88;11.23;;;;;;;;;;5049787;28;20238;-73
2022/04/02 08:09:56;;;;;;;65.80;9.13;;;;;;;;;;5050753;28;20208;-74
2022/04/02 08:12:25;;;;;;;69.43;8.77;;;;;;;;;;5050703;28;20301;-74
2022/04/02 08:14:52;;;;;;;65.97;8.48;;;;;;;;;;5050466;28;20213;-73
2022/04/02 08:17:20;;;;;;;65.20;9.65;;;;;;;;;;5049402;28;20324;-74
2022/04/02 08:19:50;;;;;;;85.30;29.10;;;;;;;;;;5049974;28;20673;-74
2022/04/02 08:22:17;;;;;;;61.97;6.90;;;;;;;;;;5050489;28;20202;-74
2022/04/02 08:24:44;;;;;;;68.13;12.18;;;;;;;;;;5050405;28;20297;-74
2022/04/02 08:27:15;;;;;;;63.20;6.90;;;;;;;;;;5049682;28;20232;-74
2022/04/02 08:29:54;;;;;;;63.00;8.07;;;;;;;;;;5049794;28;20212;-74
2022/04/02 08:32:27;;;;;;;65.03;9.05;;;;;;;;;;5049891;28;20704;-74
2022/04/02 08:35:03;;;;;;;64.90;8.43;;;;;;;;;;5050562;28;20206;-74
2022/04/02 08:37:35;;;;;;;63.80;7.82;;;;;;;;;;5049699;28;20225;-73
2022/04/02 08:40:04;;;;;;;64.10;7.45;;;;;;;;;;5050487;28;20200;-74
2022/04/02 08:42:48;;;;;;;64.75;8.68;;;;;;;;;;5050341;28;20206;-74
2022/04/02 08:45:15;;;;;;;64.13;7.80;;;;;;;;;;5050905;28;20631;-74
2022/04/02 08:48:03;;;;;;;63.97;7.80;;;;;;;;;;5049696;28;20308;-74
2022/04/02 08:50:34;;;;;;;63.47;7.50;;;;;;;;;;5050479;28;20611;-74
2022/04/02 08:53:11;;;;;;;64.47;8.10;;;;;;;;;;5050012;28;20738;-74
2022/04/02 08:55:43;;;;;;;67.85;7.93;;;;;;;;;;5049921;28;20245;-72
2022/04/02 08:58:13;;;;;;;62.67;7.80;;;;;;;;;;5049104;28;20312;-73
2022/04/02 09:00:41;;;;;;;62.33;7.13;;;;;;;;;;5049870;28;20612;-74
2022/04/02 09:03:27;;;;;;;65.15;7.32;;;;;;;;;;5049955;28;20262;-74
2022/04/02 09:06:08;;;;;;;71.57;11.88;;;;;;;;;;5049699;28;20312;-75
2022/04/02 09:08:52;;;;;;;65.65;8.45;;;;;;;;;;5049052;28;20221;-74
2022/04/02 09:11:24;;;;;;;64.30;8.13;;;;;;;;;;5049861;28;20295;-74
2022/04/02 09:14:09;;;;;;;69.63;11.95;;;;;;;;;;5050432;28;20296;-74
2022/04/02 09:16:46;;;;;;;64.68;8.43;;;;;;;;;;5049630;28;20300;-74
2022/04/02 09:19:15;;;;;;;63.38;7.53;;;;;;;;;;5048933;28;20225;-74
2022/04/02 09:21:59;;;;;;;64.72;9.63;;;;;;;;;;5049739;28;20292;-74
2022/04/02 09:24:36;;;;;;;68.90;9.82;;;;;;;;;;5049494;28;20211;-74
2022/04/02 09:27:24;;;;;;;63.97;8.20;;;;;;;;;;5049531;28;20226;-72
2022/04/02 09:30:02;;;;;;;64.60;8.40;;;;;;;;;;5044787;28;20208;-74
2022/04/02 09:32:45;;;;;;;64.20;8.73;;;;;;;;;;5048769;28;20298;-74
2022/04/02 09:35:30;;;;;;;63.15;8.23;;;;;;;;;;5048710;28;20206;-74
2022/04/02 09:38:15;;;;;;;64.60;8.90;;;;;;;;;;5048505;28;20233;-74
2022/04/02 09:40:45;;;;;;;66.32;9.00;;;;;;;;;;5042175;28;20212;-74
2022/04/02 09:43:15;;;;;;;65.38;8.95;;;;;;;;;;5049187;28;20623;-74
2022/04/02 09:45:46;;;;;;;72.28;10.00;;;;;;;;;;5049054;28;20665;-74
2022/04/02 09:48:19;;;;;;;66.05;9.25;;;;;;;;;;5048365;28;20283;-74
2022/04/02 09:50:46;;;;;;;65.30;8.95;;;;;;;;;;5049033;28;20585;-74
2022/04/02 09:53:15;;;;;;;65.72;9.50;;;;;;;;;;5049305;28;20595;-75
2022/04/02 09:55:44;;;;;;;67.88;10.00;;;;;;;;;;5048593;28;20210;-75
2022/04/02 09:58:19;;;;;;;65.68;9.90;;;;;;;;;;5048200;28;20275;-74
2022/04/02 10:00:52;;;;;;;68.45;8.93;;;;;;;;;;5049072;28;20206;-75
2022/04/02 10:03:30;;;;;;;67.45;9.35;;;;;;;;;;5048934;28;20218;-75
2022/04/02 10:06:15;;;;;;;76.03;10.70;;;;;;;;;;5049107;28;20211;-75
2022/04/02 10:08:59;;;;;;;67.15;9.07;;;;;;;;;;5048287;28;20713;-75
2022/04/02 10:11:26;;;;;;;70.00;11.23;;;;;;;;;;5048774;28;20678;-75
2022/04/02 10:13:54;;;;;;;66.00;9.45;;;;;;;;;;5049363;28;20213;-74
2022/04/02 10:16:23;;;;;;;66.60;8.38;;;;;;;;;;5048837;28;20676;-74
2022/04/02 10:18:53;;;;;;;64.43;8.77;;;;;;;;;;5047978;28;20615;-73
2022/04/02 10:21:21;;;;;;;65.40;8.65;;;;;;;;;;5049050;28;20225;-73
2022/04/02 10:23:52;;;;;;;65.05;8.85;;;;;;;;;;5049064;28;20216;-74
2022/04/02 10:26:20;;;;;;;67.78;9.80;;;;;;;;;;5048910;28;20213;-72
2022/04/02 10:28:49;;;;;;;66.00;8.75;;;;;;;;;;5048355;28;20217;-74
2022/04/02 10:31:24;;;;;;;65.22;8.95;;;;;;;;;;5048423;28;20578;-73
2022/04/02 10:33:53;;;;;;;66.75;9.18;;;;;;;;;;5048660;28;20300;-71
2022/04/02 10:36:22;;;;;;;65.70;8.98;;;;;;;;;;5048695;28;20312;-72
2022/04/02 10:38:51;;;;;;;63.55;9.10;;;;;;;;;;5048045;28;20229;-70
2022/04/02 10:41:18;;;;;;;65.63;8.90;;;;;;;;;;5048663;28;20209;-72
2022/04/02 10:43:48;;;;;;;66.18;9.60;;;;;;;;;;5048687;28;20201;-71
2022/04/02 10:46:16;;;;;;;66.20;8.85;;;;;;;;;;5048526;28;20249;-69
2022/04/02 10:48:51;;;;;;;64.05;9.43;;;;;;;;;;5047787;28;20226;-72
2022/04/02 10:51:23;;;;;;;76.40;9.43;;;;;;;;;;5048712;28;20206;-72
2022/04/02 10:53:56;;;;;;;65.35;9.20;;;;;;;;;;5048494;28;20212;-72
2022/04/02 10:56:26;;;;;;;67.53;10.40;;;;;;;;;;5048630;28;20248;-71
2022/04/02 10:58:55;;;;;;;66.63;11.18;;;;;;;;;;5047506;28;20229;-69
2022/04/02 11:01:24;;;;;;;70.15;12.35;;;;;;;;;;5048402;28;20202;-71
2022/04/02 11:03:55;;;;;;;64.40;8.85;;;;;;;;;;5048162;28;20293;-71
2022/04/02 11:06:41;;;;;;;67.25;10.88;;;;;;;;;;5048955;28;20210;-68
2022/04/02 11:09:23;;;;;;;67.05;10.55;;;;;;;;;;5051152;28;20297;-70
2022/04/02 11:11:53;;;;;;;66.35;9.80;;;;;;;;;;5051610;28;20296;-71
2022/04/02 11:14:21;;;;;;;69.00;9.63;;;;;;;;;;5051727;28;20694;-72
2022/04/02 11:16:48;;;;;;;67.78;11.02;;;;;;;;;;5051759;28;20202;-71
2022/04/02 11:22:03;;;;;;;69.20;10.57;;;;;;;;;;5051592;28;20197;-72
2022/04/02 11:24:32;;;;;;;65.05;9.68;;;;;;;;;;5051588;28;20562;-71
2022/04/02 11:27:01;;;;;;;63.78;8.77;;;;;;;;;;5051588;28;20225;-71
2022/04/02 11:29:29;;;;;;;64.72;9.10;;;;;;;;;;5050833;28;20593;-70
2022/04/02 11:31:57;;;;;;;64.05;8.68;;;;;;;;;;5051461;28;20579;-71
2022/04/02 11:34:27;;;;;;;64.35;8.90;;;;;;;;;;5051401;28;20202;-71
2022/04/02 11:37:01;;;;;;;65.50;9.27;;;;;;;;;;5051165;28;20222;-71
2022/04/02 11:39:33;;;;;;;64.88;10.60;;;;;;;;;;5050786;28;20229;-71
2022/04/02 11:42:03;;;;;;;66.03;9.90;;;;;;;;;;5051590;28;20605;-71
2022/04/02 11:44:36;;;;;;;68.35;10.23;;;;;;;;;;5051199;28;20228;-71
2022/04/02 11:47:04;;;;;;;67.75;9.85;;;;;;;;;;5051592;28;20312;-71
2022/04/02 11:49:32;;;;;;;65.47;10.15;;;;;;;;;;5050320;28;20542;-71
2022/04/02 11:52:03;;;;;;;65.60;9.05;;;;;;;;;;5051244;28;20296;-71
2022/04/02 11:54:31;;;;;;;67.50;9.98;;;;;;;;;;5050891;28;20248;-71
2022/04/02 11:57:09;;;;;;;65.75;9.95;;;;;;;;;;5050934;28;20312;-71
2022/04/02 11:59:37;;;;;;;68.00;10.70;;;;;;;;;;5050814;28;20312;-71
2022/04/02 12:02:05;;;;;;;66.30;9.57;;;;;;;;;;5051169;28;20217;-71
2022/04/02 12:04:34;;;;;;;66.07;10.20;;;;;;;;;;5051433;28;20211;-71
2022/04/02 12:07:06;;;;;;;66.10;10.10;;;;;;;;;;5051134;28;20265;-72
2022/04/02 12:09:33;;;;;;;82.38;18.73;;;;;;;;;;5051028;28;20581;-70
2022/04/02 12:12:02;;;;;;;69.78;12.45;;;;;;;;;;5051112;28;20201;-71
2022/04/02 12:14:32;;;;;;;69.18;11.15;;;;;;;;;;5051369;28;20665;-71
2022/04/02 12:17:03;;;;;;;125.05;36.80;;;;;;;;;;5050684;28;20225;-71
2022/04/02 12:19:35;;;;;;;78.32;17.13;;;;;;;;;;5049295;28;20226;-74
2022/04/02 12:22:04;;;;;;;378.77;133.32;;;;;;;;;;5050554;28;20292;-71
2022/04/02 12:24:39;;;;;;;81.45;16.33;;;;;;;;;;5051033;28;20234;-71
2022/04/02 12:27:07;;;;;;;68.88;12.20;;;;;;;;;;5051099;28;20224;-70
2022/04/02 12:29:36;;;;;;;70.70;12.65;;;;;;;;;;5050752;28;20213;-72
2022/04/02 12:32:04;;;;;;;69.13;11.75;;;;;;;;;;5051784;28;20297;-72
2022/04/02 12:34:32;;;;;;;69.40;13.63;;;;;;;;;;5051286;28;20749;-72
2022/04/02 12:37:02;;;;;;;67.80;11.77;;;;;;;;;;5050654;28;20229;-71
2022/04/02 12:39:29;;;;;;;67.80;12.65;;;;;;;;;;5049285;28;20738;-72
2022/04/02 12:41:56;;;;;;;69.25;12.00;;;;;;;;;;5050603;28;20793;-72
2022/04/02 12:44:24;;;;;;;68.47;11.68;;;;;;;;;;5050710;28;20220;-72
2022/04/02 12:46:54;;;;;;;69.95;12.63;;;;;;;;;;5051344;28;20289;-71
2022/04/02 12:49:31;;;;;;;68.30;11.57;;;;;;;;;;5050513;28;20202;-72
2022/04/02 12:52:10;;;;;;;65.57;10.05;;;;;;;;;;5052171;28;20619;-72
2022/04/02 12:54:38;;;;;;;66.78;11.20;;;;;;;;;;5052384;28;20205;-72
2022/04/02 12:57:11;;;;;;;64.78;10.07;;;;;;;;;;5051591;28;20680;-70
2022/04/02 12:59:43;;;;;;;67.40;10.50;;;;;;;;;;5051281;28;20707;-72
2022/04/02 13:02:12;;;;;;;67.35;10.77;;;;;;;;;;5051265;28;20205;-72
2022/04/02 13:04:41;;;;;;;66.85;10.98;;;;;;;;;;5050898;28;20300;-72
2022/04/02 13:07:13;;;;;;;67.80;10.95;;;;;;;;;;5050241;28;20241;-72
2022/04/02 13:09:41;;;;;;;67.75;10.45;;;;;;;;;;5050632;28;20197;-72
2022/04/02 13:12:10;;;;;;;66.30;10.32;;;;;;;;;;5050024;28;20255;-73
2022/04/02 13:14:42;;;;;;;66.75;10.70;;;;;;;;;;5049775;28;20202;-70
2022/04/02 13:17:12;;;;;;;70.07;10.50;;;;;;;;;;5049834;28;20722;-68
2022/04/02 13:22:30;;;;;;;66.90;11.38;;;;;;;;;;5050299;28;20200;-71
2022/04/02 13:24:58;;;;;;;65.90;10.38;;;;;;;;;;5050229;28;20202;-72
2022/04/02 13:27:44;;;;;;;66.78;10.75;;;;;;;;;;5049202;28;20233;-72
2022/04/02 13:30:12;;;;;;;68.10;11.65;;;;;;;;;;5049094;28;20205;-73
2022/04/02 13:33:06;;;;;;;68.22;10.20;;;;;;;;;;5049778;28;20301;-72
2022/04/02 13:35:37;;;;;;;67.38;11.05;;;;;;;;;;5049682;28;20288;-72
2022/04/02 13:38:10;;;;;;;67.20;10.32;;;;;;;;;;5049236;28;20230;-72
2022/04/02 13:40:38;;;;;;;68.38;12.32;;;;;;;;;;5049967;28;20231;-72
2022/04/02 13:43:06;;;;;;;67.95;12.10;;;;;;;;;;5049671;28;20206;-72
2022/04/02 13:45:36;;;;;;;68.05;10.73;;;;;;;;;;5050238;28;20208;-72
2022/04/02 13:48:06;;;;;;;69.93;12.20;;;;;;;;;;5050517;28;20608;-72
2022/04/02 13:50:37;;;;;;;65.63;9.90;;;;;;;;;;5051179;28;20206;-72
2022/04/02 13:53:06;;;;;;;69.60;12.30;;;;;;;;;;5049997;28;20217;-72
2022/04/02 13:55:34;;;;;;;68.05;11.43;;;;;;;;;;5050550;28;20669;-72
2022/04/02 13:58:03;;;;;;;66.95;10.40;;;;;;;;;;5049929;28;20316;-72
2022/04/02 14:00:32;;;;;;;66.90;10.88;;;;;;;;;;5049686;28;20225;-71
2022/04/02 14:03:00;;;;;;;67.13;11.55;;;;;;;;;;5049615;28;20209;-72
2022/04/02 14:05:30;;;;;;;72.05;11.68;;;;;;;;;;5049423;28;20205;-72
2022/04/02 14:08:01;;;;;;;68.35;12.07;;;;;;;;;;5048424;28;20328;-72
2022/04/02 14:10:32;;;;;;;69.88;10.82;;;;;;;;;;5049872;28;20206;-72
2022/04/02 14:13:01;;;;;;;69.03;11.85;;;;;;;;;;5049934;28;20239;-72
2022/04/02 14:15:30;;;;;;;68.38;10.93;;;;;;;;;;5050208;28;20288;-72
2022/04/02 14:17:59;;;;;;;68.53;11.43;;;;;;;;;;5049216;28;20308;-72
2022/04/02 14:20:26;;;;;;;68.70;10.45;;;;;;;;;;5049706;28;20229;-72
2022/04/02 14:23:04;;;;;;;66.85;10.63;;;;;;;;;;5049370;28;20678;-71
2022/04/02 14:25:42;;;;;;;67.72;9.85;;;;;;;;;;5049788;28;20208;-72
2022/04/02 14:28:27;;;;;;;67.80;11.32;;;;;;;;;;5049335;28;20233;-72
2022/04/02 14:31:20;;;;;;;69.00;10.90;;;;;;;;;;5049202;28;20237;-72
2022/04/02 14:34:02;;;;;;;67.30;10.90;;;;;;;;;;5048713;28;20209;-72
2022/04/02 14:36:41;;;;;;;66.70;11.32;;;;;;;;;;5049004;28;20208;-72
2022/04/02 14:39:29;;;;;;;69.78;11.57;;;;;;;;;;5048002;28;20320;-72
2022/04/02 14:42:06;;;;;;;71.28;12.93;;;;;;;;;;5051737;28;20216;-72
2022/04/02 14:44:56;;;;;;;67.88;11.80;;;;;;;;;;5052247;28;20205;-72